KA1WBH Weather Reports


Display with metric or nautical units.
time (UTC)temp
F
wind
direction
speed
MPH
gust
MPH
rain 1hr
in
rain 24hr
in
rain mn
in
humidity
%
barometer
mb
20180820170040 72 29 6.0 18.0 0.00 0.07 0.07 86 1019.9
20180820165040 71 76 12.0 15.0 0.00 0.07 0.07 88 1019.9
20180820164040 71 66 5.0 18.0 0.00 0.07 0.07 89 1020.0
20180820163040 70 58 11.0 19.0 0.00 0.07 0.07 89 1020.0
20180820162040 70 54 10.0 17.0 0.00 0.07 0.07 89 1019.9
20180820161040 70 65 7.0 17.0 0.00 0.07 0.07 90 1020.1
20180820160040 70 43 11.0 18.0 0.00 0.07 0.07 91 1020.0
20180820155040 70 33 12.0 18.0 0.00 0.07 0.07 92 1020.2
20180820154040 69 15 6.0 16.0 0.00 0.07 0.07 93 1020.0
20180820153040 69 55 4.0 16.0 0.00 0.07 0.07 94 1020.2
20180820152040 69 353 14.0 14.0 0.00 0.07 0.07 94 1020.3
20180820151040 69 86 3.0 15.0 0.00 0.07 0.07 94 1020.5
20180820150040 68 88 6.0 14.0 0.00 0.07 0.07 94 1020.8
20180820145040 68 53 5.0 15.0 0.00 0.07 0.07 95 1021.0
20180820144040 68 100 4.0 18.0 0.00 0.07 0.07 95 1020.9
20180820143040 68 33 5.0 14.0 0.00 0.07 0.07 96 1020.8
20180820142040 68 55 14.0 18.0 0.01 0.07 0.07 97 1020.9
20180820141040 67 73 0.0 16.0 0.01 0.07 0.07 98 1020.9
20180820140040 67 89 7.0 17.0 0.02 0.07 0.07 98 1020.9
20180820135040 67 38 0.0 14.0 0.02 0.07 0.07 98 1020.9
20180820134040 67 337 5.0 13.0 0.02 0.07 0.07 98 1020.7
20180820133040 67 63 0.0 12.0 0.03 0.07 0.07 99 1020.6
20180820132040 67 79 5.0 13.0 0.02 0.06 0.06 99 1020.8
20180820131040 67 71 6.0 15.0 0.02 0.06 0.06 98 1020.5
20180820130040 67 71 0.0 11.0 0.02 0.05 0.05 99 1020.4
20180820125040 67 355 7.0 14.0 0.02 0.05 0.05 99 1020.3
20180820124040 67 21 0.0 13.0 0.02 0.05 0.05 99 1020.1
20180820123040 67 19 3.0 10.0 0.01 0.04 0.04 99 1020.1
20180820122040 67 9 2.0 14.0 0.02 0.04 0.04 99 1020.1
20180820121040 67 64 3.0 9.0 0.02 0.04 0.04 99 1019.8
20180820120110 67 345 4.0 11.0 0.01 0.03 0.03 99 1019.8
20180820115040 67 56 4.0 10.0 0.02 0.03 0.03 99 1019.8
20180820114040 67 27 0.0 10.0 0.02 0.03 0.03 99 1019.6
20180820113040 67 63 4.0 13.0 0.02 0.03 0.03 99 1019.7
20180820112040 67 62 5.0 10.0 0.01 0.02 0.02 99 1019.6
20180820111040 67 19 2.0 11.0 0.01 0.02 0.02 99 1019.5
20180820110040 67 10 6.0 10.0 0.01 0.02 0.02 99 1019.3
20180820105040 67 32 0.0 11.0 0.00 0.01 0.01 98 1019.4
20180820104040 67 33 2.0 11.0 0.00 0.01 0.01 98 1019.4
20180820103040 67 105 2.0 11.0 0.00 0.01 0.01 99 1019.2
20180820102040 67 22 6.0 11.0 0.00 0.01 0.01 98 1019.2
20180820101040 67 38 6.0 11.0 0.00 0.01 0.01 99 1018.9
20180820100040 67 64 0.0 10.0 0.00 0.01 0.01 99 1018.8
20180820095040 67 25 2.0 11.0 0.00 0.01 0.01 99 1018.7
20180820094040 67 10 8.0 10.0 0.00 0.01 0.01 99 1018.5
20180820093040 67 56 8.0 11.0 0.00 0.01 0.01 99 1018.5
20180820092040 67 360 4.0 11.0 0.00 0.01 0.01 99 1018.3
20180820091040 67 61 0.0 11.0 0.00 0.01 0.01 99 1018.3
20180820090040 67 71 0.0 11.0 0.00 0.01 0.01 99 1018.2
20180820085040 67 54 3.0 12.0 0.00 0.01 0.01 99 1018.1
20180820084040 67 60 5.0 13.0 0.00 0.01 0.01 99 1018.0
20180820083040 67 68 9.0 11.0 0.00 0.01 0.01 99 1018.2
20180820082040 67 68 4.0 10.0 0.00 0.01 0.01 99 1018.3
20180820081040 67 92 2.0 11.0 0.00 0.01 0.01 99 1018.2
20180820080040 67 6 1.0 10.0 0.00 0.01 0.01 99 1018.3
20180820075040 67 43 5.0 11.0 0.00 0.01 0.01 98 1018.1
20180820074040 67 65 0.0 10.0 0.00 0.01 0.01 98 1018.1
20180820073040 67 65 0.0 10.0 0.00 0.01 0.01 98 1018.2
20180820072040 67 48 0.0 7.0 0.00 0.01 0.01 98 1018.1
20180820071040 67 87 0.0 10.0 0.00 0.01 0.01 98 1018.2
20180820070040 67 38 4.0 10.0 0.00 0.01 0.01 98 1018.0
20180820065040 67 38 8.0 10.0 0.00 0.01 0.01 98 1018.0
20180820064040 67 349 10.0 11.0 0.00 0.01 0.01 97 1018.0
20180820063040 67 38 5.0 10.0 0.00 0.01 0.01 97 1018.0
20180820062040 68 28 3.0 12.0 0.00 0.01 0.01 96 1018.0
20180820061040 68 66 7.0 12.0 0.00 0.01 0.01 96 1017.9
20180820060040 68 58 4.0 13.0 0.00 0.01 0.01 97 1018.0
20180820055040 68 85 1.0 14.0 0.00 0.01 0.01 96 1018.0
20180820054040 68 38 3.0 16.0 0.00 0.01 0.01 96 1017.9
20180820053040 68 52 6.0 17.0 0.01 0.01 0.01 97 1017.9
20180820052040 68 16 1.0 15.0 0.01 0.01 0.01 98 1017.8
20180820051040 68 74 10.0 13.0 0.01 0.01 0.01 98 1018.0
20180820050040 68 54 6.0 15.0 0.01 0.01 0.01 98 1017.9
20180820045039 68 69 6.0 14.0 0.01 0.01 0.01 98 1018.0
20180820044040 68 81 5.0 15.0 0.01 0.01 0.01 98 1017.9
20180820043040 67 60 4.0 10.0 0.00 0.00 0.00 98 1018.1
20180820042039 68 92 3.0 12.0 0.00 0.00 0.00 98 1017.9
20180820041040 67 12 6.0 10.0 0.00 0.00 0.00 98 1017.9
20180820040110 67 26 5.0 12.0 0.00 0.00 0.00 98 1017.9
20180820035040 67 38 5.0 13.0 0.00 0.00 0.00 98 1017.8
20180820034039 67 69 1.0 11.0 0.00 0.00 0.00 98 1017.7
20180820033040 67 67 4.0 10.0 0.00 0.00 0.00 98 1017.8
20180820032040 67 25 4.0 10.0 0.00 0.00 0.00 97 1017.9
20180820031040 67 18 3.0 11.0 0.00 0.00 0.00 97 1017.9
20180820030040 67 78 0.0 9.0 0.00 0.00 0.00 97 1018.0
20180820025040 67 48 6.0 10.0 0.00 0.00 0.00 97 1018.0
20180820024040 67 15 1.0 10.0 0.00 0.00 0.00 97 1018.1
20180820023039 67 74 4.0 13.0 0.00 0.01 0.00 97 1017.9
20180820022040 67 104 2.0 10.0 0.00 0.01 0.00 97 1018.0
20180820021040 67 349 6.0 10.0 0.00 0.01 0.00 96 1018.0
20180820020039 67 48 2.0 9.0 0.00 0.01 0.00 96 1018.1
20180820015040 67 64 2.0 11.0 0.00 0.01 0.00 94 1018.2
20180820014040 68 43 10.0 10.0 0.00 0.01 0.00 92 1018.2
20180820013039 68 360 3.0 10.0 0.00 0.01 0.00 91 1018.2
20180820012039 68 70 6.0 11.0 0.00 0.01 0.00 91 1018.2
20180820011040 68 66 4.0 12.0 0.00 0.01 0.00 91 1018.0
20180820010040 68 27 4.0 13.0 0.00 0.01 0.00 90 1018.0
20180820005040 68 14 1.0 13.0 0.00 0.01 0.00 90 1018.1
20180820004040 68 16 9.0 12.0 0.00 0.01 0.00 90 1018.0
20180820003040 68 75 4.0 11.0 0.00 0.01 0.00 90 1017.8
20180820002039 68 54 6.0 18.0 0.00 0.01 0.00 89 1017.7
20180820001040 68 43 1.0 13.0 0.00 0.01 0.00 89 1017.7
20180820000039 68 30 13.0 13.0 0.00 0.01 0.00 88 1017.6
20180819235040 68 354 9.0 12.0 0.00 0.01 0.00 88 1017.6
20180819234040 68 30 0.0 13.0 0.00 0.01 0.00 88 1017.4
20180819233039 68 356 5.0 12.0 0.00 0.01 0.00 87 1017.2
20180819232039 68 31 7.0 13.0 0.00 0.01 0.00 87 1017.3
20180819231039 68 60 7.0 12.0 0.00 0.02 0.00 87 1017.2
20180819230040 68 59 12.0 13.0 0.00 0.03 0.00 87 1017.1
20180819225040 68 86 2.0 11.0 0.00 0.04 0.00 87 1017.0
20180819224039 68 48 3.0 10.0 0.00 0.04 0.00 88 1017.2
20180819223039 68 4 2.0 13.0 0.00 0.04 0.00 88 1016.8
20180819222039 68 75 4.0 11.0 0.00 0.04 0.00 88 1016.9
20180819221039 68 43 10.0 16.0 0.00 0.04 0.00 88 1016.8
20180819220039 68 19 2.0 16.0 0.00 0.04 0.00 87 1016.8
20180819215040 68 54 9.0 15.0 0.00 0.04 0.00 87 1016.8
20180819214039 68 8 5.0 15.0 0.00 0.04 0.00 87 1016.8
20180819213039 69 89 7.0 16.0 0.00 0.04 0.00 87 1016.5
20180819212039 69 60 5.0 17.0 0.00 0.04 0.00 86 1016.6
20180819211040 69 65 10.0 15.0 0.00 0.04 0.00 87 1016.6
20180819210039 69 77 5.0 14.0 0.00 0.04 0.00 87 1016.6
20180819205039 69 55 11.0 16.0 0.00 0.04 0.00 87 1016.5
20180819204039 68 43 11.0 18.0 0.00 0.04 0.00 86 1016.4
20180819203039 69 114 18.0 18.0 0.00 0.04 0.00 86 1016.4
20180819202039 69 102 1.0 15.0 0.00 0.04 0.00 86 1016.3
20180819201039 69 58 11.0 16.0 0.00 0.04 0.00 86 1016.3
20180819200039 69 57 2.0 18.0 0.00 0.04 0.00 86 1016.2
20180819195039 69 34 11.0 18.0 0.00 0.04 0.00 85 1016.2
20180819194039 69 56 6.0 15.0 0.00 0.04 0.00 84 1016.3
20180819193040 69 330 1.0 20.0 0.00 0.04 0.00 85 1016.0
20180819192039 69 76 2.0 17.0 0.00 0.04 0.00 84 1016.2
20180819191039 69 70 0.0 16.0 0.00 0.04 0.00 84 1016.2
20180819190039 69 72 11.0 15.0 0.00 0.04 0.00 84 1016.1
20180819185039 69 27 11.0 16.0 0.00 0.04 0.00 84 1016.1
20180819184039 70 75 6.0 19.0 0.00 0.04 0.00 84 1016.2
20180819183039 70 70 12.0 19.0 0.00 0.04 0.00 82 1016.0
20180819182039 70 38 6.0 17.0 0.00 0.04 0.00 81 1015.8
20180819181039 70 17 11.0 17.0 0.00 0.04 0.00 81 1015.8
20180819180040 71 29 12.0 19.0 0.00 0.04 0.00 81 1015.9
20180819175039 70 43 14.0 19.0 0.00 0.04 0.00 81 1015.8
20180819174039 70 333 10.0 19.0 0.00 0.04 0.00 80 1015.6
20180819173039 71 62 7.0 19.0 0.00 0.04 0.00 81 1015.6
20180819172039 70 7 7.0 20.0 0.00 0.04 0.00 80 1015.4
20180819171039 70 31 6.0 17.0 0.00 0.04 0.00 82 1015.5